Flight Track Log - Related Links

Times and Time Zones

All times are in EDT time to prevent confusion due to time zone crossing. See the SWA1533 flight status page for this flight to view local times or setup timezone preferences in your user account.

Time Position Orientation Groundspeed Altitude Reporting Facility
EDT Latitude Longitude Course Direction KTS MPH feet Rate Location/Type
05:42PM 39.8150 -104.6442 200° South 193 222 6,700  Level Denver Center
05:43PM 39.7575 -104.6719 200° South 232 267 8,600 1,854 Climbing Denver Center
05:44PM 39.6803 -104.6969 194° South 281 323 10,500 2,089 Climbing Denver Center
05:45PM 39.5964 -104.7375 200° South 328 377 13,300 2,735 Climbing Denver Center
05:46PM 39.4983 -104.8083 209° Southwest 332 382 16,700 2,468 Climbing Denver Center
05:47PM 39.4069 -104.8739 209° Southwest 376 433 18,400 2,129 Climbing Denver Center
05:48PM 39.3050 -104.9464 209° Southwest 390 449 21,100 2,537 Climbing Denver Center
05:49PM 39.2050 -105.0183 209° Southwest 407 468 23,600 2,098 Climbing Denver Center
05:50PM 39.1081 -105.0833 207° Southwest 400 460 25,400 1,544 Climbing Denver Center
05:51PM 39.0042 -105.1506 207° Southwest 413 475 27,100 2,206 Climbing Denver Center
05:52PM 38.8742 -105.2339 207° Southwest 434 499 30,400 2,382 Climbing Denver Center
05:54PM 38.7519 -105.3117 206° Southwest 413 475 32,500 1,676 Climbing Denver Center
05:55PM 38.6194 -105.3628 197° South 417 480 34,200 1,306 Climbing Denver Center
05:56PM 38.5297 -105.3972 197° South 421 484 35,200 1,113 Climbing Denver Center
05:57PM 38.3922 -105.4503 197° South 428 493 36,500 1,258 Climbing Denver Center
05:58PM 38.2617 -105.5006 197° South 437 503 37,800 732 Climbing Denver Center
05:59PM 38.1503 -105.5447 197° South 439 505 38,000 98 Climbing Denver Center
06:00PM 38.0303 -105.6278 209° Southwest 438 504 38,000  Level Denver Center
06:01PM 37.9267 -105.6972 208° Southwest 438 504 38,000  Level Denver Center
06:02PM 37.8253 -105.7675 209° Southwest 437 503 38,000  Level Denver Center
06:03PM 37.7219 -105.8372 208° Southwest 439 505 38,000  Level Denver Center
06:04PM 37.6047 -105.9161 208° Southwest 430 495 38,000  Level Denver Center
06:05PM 37.4961 -105.9894 208° Southwest 432 497 38,000  Level Denver Center
06:06PM 37.3794 -106.0678 208° Southwest 426 490 38,000  Level Denver Center
06:07PM 37.2781 -106.1350 208° Southwest 428 493 38,000  Level Denver Center
06:08PM 37.1633 -106.2150 209° Southwest 424 488 38,000  Level Denver Center
06:09PM 37.0592 -106.2822 207° Southwest 432 497 38,000  Level Denver Center
06:10PM 36.9417 -106.3608 208° Southwest 429 494 38,000  Level Denver Center
06:11PM 36.8408 -106.4283 208° Southwest 428 493 38,000  Level Denver Center
06:12PM 36.7381 -106.4964 208° Southwest 426 490 38,000  Level Denver Center
06:13PM 36.6244 -106.5706 208° Southwest 422 486 38,000  Level Denver Center
06:14PM 36.5244 -106.6353 207° Southwest 422 486 38,000  Level Denver Center
06:15PM 36.4108 -106.7111 208° Southwest 416 479 38,000  Level Denver Center
06:16PM 36.3106 -106.7758 207° Southwest 421 484 38,000  Level Denver Center
06:17PM 36.1997 -106.8481 208° Southwest 422 486 38,000  Level Denver Center
06:18PM 36.0953 -106.9142 207° Southwest 423 487 38,000  Level Denver Center
06:19PM 35.9925 -106.9822 208° Southwest 420 483 38,000  Level Denver Center
06:20PM 35.8878 -107.0486 207° Southwest 423 487 38,000  Level Denver Center
06:21PM 35.7847 -107.1158 208° Southwest 421 484 38,000  Level Denver Center
06:23PM 35.6411 -107.2089 208° Southwest 426 490 38,000  Level Albuquerque Center
06:24PM 35.5222 -107.2844 207° Southwest 428 493 38,000  Level Albuquerque Center
06:25PM 35.4175 -107.3503 207° Southwest 435 501 38,000  Level Albuquerque Center
06:26PM 35.3147 -107.4153 207° Southwest 434 499 38,000  Level Albuquerque Center
06:27PM 35.1928 -107.4925 207° Southwest 440 506 38,000  Level Albuquerque Center
06:28PM 35.0961 -107.5539 207° Southwest 450 518 38,000  Level Albuquerque Center
06:29PM 34.9650 -107.6361 207° Southwest 447 514 38,000  Level Albuquerque Center
06:30PM 34.8569 -107.7036 207° Southwest 441 507 38,000  Level Albuquerque Center
06:31PM 34.7492 -107.7725 208° Southwest 440 506 38,000  Level Albuquerque Center
06:32PM 34.6406 -107.8400 207° Southwest 440 506 38,000  Level Albuquerque Center
06:33PM 34.5319 -107.9067 207° Southwest 439 505 38,000  Level Albuquerque Center
06:34PM 34.4233 -107.9733 207° Southwest 439 505 38,000  Level Albuquerque Center
06:35PM 34.3161 -108.0406 207° Southwest 437 503 38,000  Level Albuquerque Center
06:36PM 34.2047 -108.1050 206° Southwest 442 509 38,000  Level Albuquerque Center
06:37PM 34.0764 -108.1900 209° Southwest 439 505 38,000  Level Albuquerque Center
06:38PM 33.9625 -108.2506 204° Southwest 445 512 38,000 -439 Level Albuquerque Center
06:39PM 33.8550 -108.3183 208° Southwest 439 505 37,100 -829 Descending Albuquerque Center
06:40PM 33.7603 -108.3750 206° Southwest 437 503 36,300 -537 Descending Albuquerque Center
06:41PM 33.6306 -108.4533 207° Southwest 434 499 36,000 -148 Descending Albuquerque Center
06:42PM 33.5244 -108.5203 208° Southwest 433 498 36,000  Level Albuquerque Center
06:43PM 33.4153 -108.5831 206° Southwest 436 502 36,000  Level Albuquerque Center
06:44PM 33.3081 -108.6481 207° Southwest 433 498 36,000  Level Albuquerque Center
06:45PM 33.2039 -108.7214 211° Southwest 440 506 36,000  Level Albuquerque Center
06:46PM 33.1139 -108.8400 228° Southwest 439 505 36,000  Level Albuquerque Center
06:47PM 33.0319 -108.9467 228° Southwest 437 503 36,000  Level Albuquerque Center
06:48PM 32.9658 -109.0681 237° Southwest 443 510 36,000  Level Albuquerque Center
06:49PM 32.8889 -109.1914 233° Southwest 454 522 36,000 -244 Level Albuquerque Center
06:50PM 32.8161 -109.3061 233° Southwest 447 514 35,500 -1,574 Descending Albuquerque Center
06:51PM 32.7433 -109.4214 233° Southwest 441 507 32,800 -2,656 Descending Albuquerque Center
06:52PM 32.6694 -109.5367 233° Southwest 440 506 30,100 -2,410 Descending Albuquerque Center
06:53PM 32.5969 -109.6500 233° Southwest 436 502 27,900 -2,146 Descending Albuquerque Center
06:54PM 32.5278 -109.7614 234° Southwest 427 491 25,700 -2,341 Descending Albuquerque Center
06:55PM 32.4464 -109.8889 233° Southwest 410 472 23,100 -2,262 Descending Albuquerque Center
06:56PM 32.3775 -109.9892 231° Southwest 400 460 21,100 -2,019 Descending Albuquerque Center
06:57PM 32.3292 -110.0678 234° Southwest 391 450 19,500 -1,967 Descending Albuquerque Center
06:57PM 32.3164 -110.0931 239° Southwest 390 449 19,100 -2,000 Descending Albuquerque Center
06:58PM 32.2947 -110.1206 227° Southwest 384 442 18,500 -1,935 Descending Albuquerque Center
06:58PM 32.2536 -110.1886 234° Southwest 377 434 17,100 -1,967 Descending Albuquerque Center
06:59PM 32.2325 -110.2161 228° Southwest 369 425 16,500 -1,967 Descending Albuquerque Center
06:59PM 32.2131 -110.2892 253° West 352 405 15,100 -1,900 Descending Albuquerque Center
07:00PM 32.2139 -110.3250 272° West 361 415 14,600 -1,672 Descending Albuquerque Center
07:00PM 32.2219 -110.4097 276° West 353 406 13,400 -1,770 Descending Albuquerque Center
07:01PM 32.2219 -110.4411 270° West 352 405 12,800 -2,164 Descending Albuquerque Center
07:01PM 32.2297 -110.5242 276° West 349 402 11,200 -1,700 Descending Albuquerque Center
07:02PM 32.2292 -110.5528 269° West 349 402 11,100 -329 Descending Albuquerque Center
07:03PM 32.2389 -110.6661 276° West 343 395 10,800 -595 Descending Albuquerque Center
07:04PM 32.2439 -110.7453 274° West 341 392 10,000 -1,082 Descending Albuquerque Center
07:04PM 32.2456 -110.7650 276° West 310 357 9,700 -1,377 Descending Albuquerque Center
07:05PM 32.2592 -110.8392 282° West 323 372 8,600 -1,100 Descending Albuquerque Center
07:05PM 32.2656 -110.8656 286° West 293 337 8,600 -393 Level Albuquerque Center
07:06PM 32.2822 -110.9256 288° West 301 346 8,200 -492 Descending Albuquerque Center
07:06PM 32.2858 -110.9483 281° West 267 307 8,100 -885 Descending Albuquerque Center
07:07PM 32.2900 -111.0000 275° West 275 316 7,300 -1,100 Descending Albuquerque Center
07:07PM 32.2736 -111.0172 222° Southwest 233 268 7,000 -1,082 Descending Albuquerque Center
07:08PM 32.2403 -111.0567 225° Southwest 230 265 6,200 -787 Descending Albuquerque Center
07:08PM 32.2350 -111.0606 212° Southwest 190 219 6,200 -984 Level Albuquerque Center
07:09PM 32.2083 -111.0467 156° South 214 246 5,200 -984 Descending Albuquerque Center
07:09PM 32.2008 -111.0394 141° Southeast 168 193 5,200 -1,258 Level Albuquerque Center
07:10PM 32.1778 -111.0094 132° Southeast 182 209 3,900 -1,300 Descending Albuquerque Center
07:10PM 32.1706 -111.0047 151° Southeast 156 180 3,900 -98 Level Albuquerque Center
07:11PM 32.1492 -110.9708 127° Southeast 177 204 3,800 -787 Descending Albuquerque Center
07:11PM 32.1422 -110.9697 172° South 151 174 3,100 -6,000 Descending Albuquerque Center
07:13PM 32.1161 -110.9410 157° South  Level Estimated
07:20PM 32.1161 -110.9410 157° South  Level Estimated

Login

Don't have an account? Register now (free) for customized features, flight alerts, and more!